Terminal Aerodrome Forecast
Issued by NWS Greer, SC

Home | Current Version | Previous Version | Graphics & Text | Print | Product List | Glossary On
Versions: 1 2 3 4 5 6 7 8 9 10 11 12 13 14 15 16 17 18 19 20 21 22 23 24 25 26 27 28 29 30 31 32 33 34 35 36 37 38 39 40 41 42 43 44 45 46 47 48
000
FTUS42 KGSP 230221 AAC
TAFAVL
TAF AMD
KAVL 230221Z 2302/2324 16004KT P6SM SCT007 BKN015 OVC030
      TEMPO 2302/2306 5SM SHRA BR BKN007 OVC015
     FM230600 16006KT 4SM BR VCSH OVC015
     FM231300 17006KT P6SM BKN045
     FM231700 18011G19KT P6SM BKN060 PROB30 2318/2324 4SM -TSRA
      OVC040CB=

USA.gov is the U.S. government's official web portal to all federal, state and local government web resources and services.